This is the latest recevied weather packets stored in our database for station/object N9WHM. If no packets are shown the sender has not sent any weather packets the latest 10 day(s).
| Time | Temp. | Humidity | Pressure | Rain* | Wind** | Luminosity | Snow |
|---|---|---|---|---|---|---|---|
| 1777566634 | 10° C | 68% | 1020.2 hPa | 0 mm | - | 692 W/m² | - |
| 1777566029 | 9.44° C | 71% | 1020.1 hPa | 0 mm | - | 290 W/m² | - |
| 1777565117 | 8.89° C | 71% | 1020.1 hPa | 0 mm | - | 303 W/m² | - |
| 1777564813 | 9.44° C | 71% | 1020.1 hPa | 0 mm | - | 439 W/m² | - |
| 1777564508 | 8.89° C | 71% | 1020.3 hPa | 0 mm | - | 656 W/m² | - |
| 1777563295 | 8.33° C | 73% | 1019.9 hPa | 0 mm | - | 247 W/m² | - |
| 1777562078 | 8.33° C | 73% | 1019.8 hPa | 0 mm | - | 286 W/m² | - |
| 1777561471 | 7.78° C | 74% | 1019.6 hPa | 0 mm | - | 283 W/m² | - |
| 1777561167 | 7.78° C | 74% | 1019.7 hPa | 0 mm | - | 264 W/m² | - |
| 1777560862 | 7.22° C | 73% | 1019.6 hPa | 0 mm | - | 217 W/m² | - |
| 1777560560 | 7.78° C | 72% | 1019.4 hPa | 0 mm | - | 262 W/m² | - |
| 1777557827 | 6.67° C | 74% | 1019 hPa | 0 mm | - | 85 W/m² | - |
| 1777556612 | 6.67° C | 72% | 1018.9 hPa | 0 mm | - | 52 W/m² | - |
| 1777555395 | 7.22° C | 76% | 1018.4 hPa | 0 mm | - | 89 W/m² | - |
| 1777554182 | 7.78° C | 76% | 1017.9 hPa | 0 mm | - | 82 W/m² | - |
| 1777552359 | 7.22° C | 87% | 1017.3 hPa | 0 mm | - | 72 W/m² | - |
| 1777550236 | 5.56° C | 92% | 1016.8 hPa | 0 mm | - | 23 W/m² | - |
| 1777549933 | 5° C | 92% | 1016.7 hPa | 0 mm | - | 19 W/m² | - |
| 1777548718 | 5.56° C | 90% | 1016.6 hPa | 0 mm | - | 7 W/m² | - |
| 1777547808 | 6.67° C | 89% | 1016.4 hPa | 0 mm | - | 1 W/m² | - |
| 1777545686 | 6.67° C | 90% | 1016.4 hPa | 0 mm | - | 0 W/m² | - |
| 1777545383 | 6.67° C | 90% | 1016.6 hPa | 0 mm | - | 0 W/m² | - |
| 1777545080 | 6.67° C | 90% | 1016.5 hPa | 0 mm | - | 0 W/m² | - |
| 1777544777 | 6.67° C | 90% | 1016.5 hPa | 0 mm | - | 0 W/m² | - |
| 1777544473 | 6.67° C | 90% | 1016.3 hPa | 0 mm | - | 0 W/m² | - |
* Rain latest hour (hover to see other rain measurements)
** Current wind speed in m/s (hover to see current wind gust speed)